Time,TemperatureF,DewpointF,PressureIn,WindDirection,WindDirectionDegrees,WindSpeedMPH,WindSpeedGustMPH,Humidity,HourlyPrecipIn,Conditions,Clouds,dailyrainin,SoftwareType,DateUTC
2013-05-04 00:01:00,53.1,48.1,29.99,ENE,64,6.0,12.0,83,0.00,,,0.00,Wunderground v.1.15,2013-05-04 04:01:00,
2013-05-04 00:02:00,53.1,48.1,29.99,ENE,65,8.0,12.0,83,0.00,,,0.00,Wunderground v.1.15,2013-05-04 04:02:00,
2013-05-04 00:08:00,53.1,48.1,29.99,East,85,10.0,10.0,83,0.00,,,0.00,Wunderground v.1.15,2013-05-04 04:08:00,
2013-05-04 00:13:00,53.1,48.1,29.99,ENE,62,4.0,10.0,83,0.00,,,0.00,Wunderground v.1.15,2013-05-04 04:13:00,
2013-05-04 00:19:00,53.1,48.1,29.99,NE,47,8.0,8.0,83,0.00,,,0.00,Wunderground v.1.15,2013-05-04 04:19:00,
2013-05-04 00:23:00,53.1,48.4,29.99,ENE,68,10.0,12.0,84,0.00,,,0.00,Wunderground v.1.15,2013-05-04 04:23:00,
2013-05-04 00:28:00,52.9,48.2,29.99,ENE,64,10.0,16.0,84,0.00,,,0.00,Wunderground v.1.15,2013-05-04 04:28:00,
2013-05-04 00:36:00,52.9,48.5,29.99,East,100,9.0,11.0,85,0.00,,,0.00,Wunderground v.1.15,2013-05-04 04:36:00,
2013-05-04 00:41:00,52.8,48.4,29.98,ENE,75,16.0,16.0,85,0.00,,,0.00,Wunderground v.1.15,2013-05-04 04:41:00,
2013-05-04 00:47:00,52.8,48.4,29.98,East,93,7.0,10.0,85,0.00,,,0.00,Wunderground v.1.15,2013-05-04 04:47:00,
2013-05-04 00:53:00,52.6,48.5,29.98,ENE,68,8.0,10.0,86,0.00,,,0.00,Wunderground v.1.15,2013-05-04 04:53:00,
2013-05-04 00:59:00,52.5,48.7,29.98,ENE,65,6.0,12.0,87,0.00,,,0.00,Wunderground v.1.15,2013-05-04 04:59:00,
2013-05-04 01:05:00,52.3,48.2,29.98,ENE,73,7.0,9.0,86,0.00,,,0.00,Wunderground v.1.15,2013-05-04 05:05:00,
2013-05-04 01:10:00,52.3,48.2,29.97,East,79,11.0,13.0,86,0.00,,,0.00,Wunderground v.1.15,2013-05-04 05:10:00,
2013-05-04 01:15:00,52.6,48.5,29.97,SE,145,4.0,9.0,86,0.00,,,0.00,Wunderground v.1.15,2013-05-04 05:15:00,
2013-05-04 01:21:00,52.6,48.5,29.97,East,83,11.0,11.0,86,0.00,,,0.00,Wunderground v.1.15,2013-05-04 05:21:00,
2013-05-04 01:27:00,52.6,47.9,29.97,ENE,68,12.0,12.0,84,0.00,,,0.00,Wunderground v.1.15,2013-05-04 05:27:00,
2013-05-04 01:32:00,52.5,47.8,29.97,East,82,6.0,13.0,84,0.00,,,0.00,Wunderground v.1.15,2013-05-04 05:32:00,
2013-05-04 01:37:00,52.5,47.8,29.97,East,95,12.0,12.0,84,0.00,,,0.00,Wunderground v.1.15,2013-05-04 05:37:00,
2013-05-04 01:42:00,52.5,47.8,29.96,ENE,64,6.0,13.0,84,0.00,,,0.00,Wunderground v.1.15,2013-05-04 05:42:00,
2013-05-04 01:48:00,52.5,47.8,29.96,ENE,68,9.0,11.0,84,0.00,,,0.00,Wunderground v.1.15,2013-05-04 05:48:00,
2013-05-04 01:56:00,52.3,47.3,29.96,ENE,76,15.0,15.0,83,0.00,,,0.00,Wunderground v.1.15,2013-05-04 05:56:00,
2013-05-04 02:01:00,52.3,47.6,29.96,East,83,13.0,15.0,84,0.00,,,0.00,Wunderground v.1.15,2013-05-04 06:01:00,
2013-05-04 02:07:00,52.2,47.2,29.96,ENE,65,1.0,12.0,83,0.00,,,0.00,Wunderground v.1.15,2013-05-04 06:07:00,
2013-05-04 02:12:00,52.0,47.0,29.95,SE,126,5.0,12.0,83,0.00,,,0.00,Wunderground v.1.15,2013-05-04 06:12:00,
2013-05-04 02:17:00,52.0,46.3,29.95,ENE,64,4.0,7.0,81,0.00,,,0.00,Wunderground v.1.15,2013-05-04 06:17:00,
2013-05-04 02:23:00,51.9,46.3,29.95,ENE,75,11.0,13.0,81,0.00,,,0.00,Wunderground v.1.15,2013-05-04 06:23:00,
2013-05-04 02:28:00,51.9,46.3,29.95,East,82,11.0,18.0,81,0.00,,,0.00,Wunderground v.1.15,2013-05-04 06:28:00,
2013-05-04 02:33:00,51.7,45.7,29.95,ENE,69,3.0,18.0,80,0.00,,,0.00,Wunderground v.1.15,2013-05-04 06:33:00,
2013-05-04 02:38:00,51.6,46.0,29.95,ESE,114,1.0,11.0,81,0.00,,,0.00,Wunderground v.1.15,2013-05-04 06:38:00,
2013-05-04 02:43:00,51.4,46.4,29.94,ENE,66,2.0,11.0,83,0.00,,,0.00,Wunderground v.1.15,2013-05-04 06:43:00,
2013-05-04 02:48:00,51.1,45.8,29.94,ESE,104,5.0,8.0,82,0.00,,,0.00,Wunderground v.1.15,2013-05-04 06:48:00,
2013-05-04 02:53:00,51.1,45.8,29.94,ENE,62,12.0,12.0,82,0.00,,,0.00,Wunderground v.1.15,2013-05-04 06:53:00,
2013-05-04 02:58:00,51.0,45.4,29.95,East,96,3.0,7.0,81,0.00,,,0.00,Wunderground v.1.15,2013-05-04 06:58:00,
2013-05-04 03:03:00,51.0,45.7,29.95,ENE,59,3.0,7.0,82,0.00,,,0.00,Wunderground v.1.15,2013-05-04 07:03:00,
2013-05-04 03:08:00,50.8,44.9,29.95,East,85,1.0,6.0,80,0.00,,,0.00,Wunderground v.1.15,2013-05-04 07:08:00,
2013-05-04 03:15:00,50.7,44.8,29.95,NE,44,5.0,5.0,80,0.00,,,0.00,Wunderground v.1.15,2013-05-04 07:15:00,
2013-05-04 03:21:00,50.7,44.1,29.95,NE,35,5.0,5.0,78,0.00,,,0.00,Wunderground v.1.15,2013-05-04 07:21:00,
2013-05-04 03:26:00,50.7,44.1,29.95,East,85,8.0,8.0,78,0.00,,,0.00,Wunderground v.1.15,2013-05-04 07:26:00,
2013-05-04 03:31:00,50.5,43.9,29.95,East,83,6.0,11.0,78,0.00,,,0.00,Wunderground v.1.15,2013-05-04 07:31:00,
2013-05-04 03:36:00,50.5,43.9,29.95,ESE,114,1.0,6.0,78,0.00,,,0.00,Wunderground v.1.15,2013-05-04 07:36:00,
2013-05-04 03:41:00,50.5,43.9,29.95,ENE,66,11.0,11.0,78,0.00,,,0.00,Wunderground v.1.15,2013-05-04 07:41:00,
2013-05-04 03:46:00,50.4,43.8,29.95,ENE,64,0.0,4.0,78,0.00,,,0.00,Wunderground v.1.15,2013-05-04 07:46:00,
2013-05-04 03:51:00,50.4,43.8,29.95,East,86,7.0,10.0,78,0.00,,,0.00,Wunderground v.1.15,2013-05-04 07:51:00,
2013-05-04 03:56:00,50.2,43.6,29.95,ESE,107,10.0,10.0,78,0.00,,,0.00,Wunderground v.1.15,2013-05-04 07:56:00,
2013-05-04 04:02:00,50.1,43.5,29.95,East,83,12.0,18.0,78,0.00,,,0.00,Wunderground v.1.15,2013-05-04 08:02:00,
2013-05-04 04:07:00,49.8,43.2,29.95,ENE,76,8.0,10.0,78,0.00,,,0.00,Wunderground v.1.15,2013-05-04 08:07:00,
2013-05-04 04:12:00,49.6,43.0,29.96,ENE,71,3.0,10.0,78,0.00,,,0.00,Wunderground v.1.15,2013-05-04 08:12:00,
2013-05-04 04:17:00,49.5,42.9,29.96,East,89,2.0,4.0,78,0.00,,,0.00,Wunderground v.1.15,2013-05-04 08:17:00,
2013-05-04 04:22:00,49.4,42.8,29.96,ENE,68,7.0,12.0,78,0.00,,,0.00,Wunderground v.1.15,2013-05-04 08:22:00,
2013-05-04 04:27:00,49.4,42.8,29.96,NE,56,0.0,3.0,78,0.00,,,0.00,Wunderground v.1.15,2013-05-04 08:27:00,
2013-05-04 04:32:00,49.2,42.3,29.96,NE,56,3.0,6.0,77,0.00,,,0.00,Wunderground v.1.15,2013-05-04 08:32:00,
2013-05-04 04:38:00,49.1,42.2,29.96,ESE,102,6.0,10.0,77,0.00,,,0.00,Wunderground v.1.15,2013-05-04 08:38:00,
2013-05-04 04:43:00,49.1,41.5,29.95,NNE,27,6.0,10.0,75,0.00,,,0.00,Wunderground v.1.15,2013-05-04 08:43:00,
2013-05-04 04:48:00,48.9,40.6,29.95,SSE,162,0.0,5.0,73,0.00,,,0.00,Wunderground v.1.15,2013-05-04 08:48:00,
2013-05-04 04:53:00,48.8,40.2,29.95,NE,48,0.0,5.0,72,0.00,,,0.00,Wunderground v.1.15,2013-05-04 08:53:00,
2013-05-04 04:58:00,48.8,40.2,29.95,NE,44,3.0,6.0,72,0.00,,,0.00,Wunderground v.1.15,2013-05-04 08:58:00,
2013-05-04 05:03:00,48.6,38.5,29.95,ENE,72,3.0,6.0,68,0.00,,,0.00,Wunderground v.1.15,2013-05-04 09:03:00,
2013-05-04 05:08:00,48.6,38.1,29.95,ENE,58,6.0,12.0,67,0.00,,,0.00,Wunderground v.1.15,2013-05-04 09:08:00,
2013-05-04 05:13:00,48.5,37.7,29.95,WNW,296,0.0,12.0,66,0.00,,,0.00,Wunderground v.1.15,2013-05-04 09:13:00,
2013-05-04 05:18:00,48.5,37.7,29.95,ENE,73,0.0,5.0,66,0.00,,,0.00,Wunderground v.1.15,2013-05-04 09:18:00,
2013-05-04 05:23:00,48.5,38.4,29.95,NE,55,0.0,5.0,68,0.00,,,0.00,Wunderground v.1.15,2013-05-04 09:23:00,
2013-05-04 05:29:00,48.3,38.6,29.96,NE,55,0.0,2.0,69,0.00,,,0.00,Wunderground v.1.15,2013-05-04 09:29:00,
2013-05-04 05:34:00,48.2,38.1,29.96,NNE,32,5.0,10.0,68,0.00,,,0.00,Wunderground v.1.15,2013-05-04 09:34:00,
2013-05-04 05:39:00,48.2,38.1,29.96,East,86,5.0,7.0,68,0.00,,,0.00,Wunderground v.1.15,2013-05-04 09:39:00,
2013-05-04 05:46:00,48.2,38.9,29.97,NE,47,2.0,2.0,70,0.00,,,0.00,Wunderground v.1.15,2013-05-04 09:46:00,
2013-05-04 05:51:00,48.2,38.9,29.97,NE,45,1.0,3.0,70,0.00,,,0.00,Wunderground v.1.15,2013-05-04 09:51:00,
2013-05-04 05:56:00,48.2,38.9,29.95,ENE,68,0.0,3.0,70,0.00,,,0.00,Wunderground v.1.15,2013-05-04 09:56:00,
2013-05-04 06:01:00,48.2,39.6,29.95,East,86,12.0,14.0,72,0.00,,,0.00,Wunderground v.1.15,2013-05-04 10:01:00,
2013-05-04 06:07:00,48.2,39.6,29.95,NE,56,11.0,11.0,72,0.00,,,0.00,Wunderground v.1.15,2013-05-04 10:07:00,
2013-05-04 06:12:00,48.2,39.9,29.95,ENE,71,6.0,13.0,73,0.00,,,0.00,Wunderground v.1.15,2013-05-04 10:12:00,
2013-05-04 06:17:00,48.2,40.6,29.95,NE,54,5.0,10.0,75,0.00,,,0.00,Wunderground v.1.15,2013-05-04 10:17:00,
2013-05-04 06:22:00,48.0,40.5,29.95,ENE,69,3.0,10.0,75,0.00,,,0.00,Wunderground v.1.15,2013-05-04 10:22:00,
2013-05-04 06:27:00,47.9,41.4,29.95,ENE,62,8.0,8.0,78,0.00,,,0.00,Wunderground v.1.15,2013-05-04 10:27:00,
2013-05-04 06:33:00,47.6,41.4,29.95,East,79,2.0,8.0,79,0.00,,,0.00,Wunderground v.1.15,2013-05-04 10:33:00,
2013-05-04 06:38:00,47.4,41.9,29.95,ENE,73,3.0,5.0,81,0.00,,,0.00,Wunderground v.1.15,2013-05-04 10:38:00,
2013-05-04 06:43:00,47.1,42.2,29.97,ENE,72,0.0,8.0,83,0.00,,,0.00,Wunderground v.1.15,2013-05-04 10:43:00,
2013-05-04 06:48:00,47.0,42.1,29.97,ENE,73,0.0,1.0,83,0.00,,,0.00,Wunderground v.1.15,2013-05-04 10:48:00,
2013-05-04 06:53:00,47.0,42.7,29.97,ENE,73,0.0,1.0,85,0.00,,,0.00,Wunderground v.1.15,2013-05-04 10:53:00,
2013-05-04 06:58:00,46.8,43.1,29.97,WSW,241,0.0,2.0,87,0.00,,,0.00,Wunderground v.1.15,2013-05-04 10:58:00,
2013-05-04 07:03:00,46.5,42.8,29.97,West,265,0.0,4.0,87,0.00,,,0.00,Wunderground v.1.15,2013-05-04 11:03:00,
2013-05-04 07:09:00,46.4,43.0,29.97,West,265,2.0,2.0,88,0.00,,,0.00,Wunderground v.1.15,2013-05-04 11:09:00,
2013-05-04 07:14:00,46.2,42.8,29.98,NNW,330,2.0,2.0,88,0.00,,,0.00,Wunderground v.1.15,2013-05-04 11:14:00,
2013-05-04 07:19:00,46.2,43.1,29.98,NW,308,1.0,3.0,89,0.00,,,0.00,Wunderground v.1.15,2013-05-04 11:19:00,
2013-05-04 07:26:00,46.1,43.6,29.98,NW,320,1.0,1.0,91,0.00,,,0.00,Wunderground v.1.15,2013-05-04 11:26:00,
2013-05-04 07:31:00,46.0,43.8,29.98,SW,223,0.0,2.0,92,0.00,,,0.00,Wunderground v.1.15,2013-05-04 11:31:00,
2013-05-04 07:36:00,46.0,43.8,29.98,West,267,0.0,1.0,92,0.00,,,0.00,Wunderground v.1.15,2013-05-04 11:36:00,
2013-05-04 07:41:00,45.8,43.6,29.98,NW,320,3.0,6.0,92,0.00,,,0.00,Wunderground v.1.15,2013-05-04 11:41:00,
2013-05-04 07:46:00,45.7,43.8,29.98,ENE,78,2.0,2.0,93,0.00,,,0.00,Wunderground v.1.15,2013-05-04 11:46:00,
2013-05-04 07:52:00,45.7,43.8,29.98,East,92,2.0,2.0,93,0.00,,,0.00,Wunderground v.1.15,2013-05-04 11:52:00,
2013-05-04 07:57:00,45.5,43.6,29.97,NE,48,2.0,3.0,93,0.00,,,0.00,Wunderground v.1.15,2013-05-04 11:57:00,
2013-05-04 08:02:00,45.5,43.9,29.97,NNE,23,6.0,6.0,94,0.00,,,0.00,Wunderground v.1.15,2013-05-04 12:02:00,
2013-05-04 08:08:00,45.5,43.6,29.97,NE,45,1.0,12.0,93,0.00,,,0.00,Wunderground v.1.15,2013-05-04 12:08:00,
2013-05-04 08:13:00,45.7,43.8,29.97,East,90,1.0,12.0,93,0.00,,,0.00,Wunderground v.1.15,2013-05-04 12:13:00,
2013-05-04 08:19:00,45.7,43.8,29.97,ENE,64,5.0,6.0,93,0.00,,,0.00,Wunderground v.1.15,2013-05-04 12:19:00,
2013-05-04 08:26:00,45.8,44.2,29.98,East,80,5.0,5.0,94,0.00,,,0.00,Wunderground v.1.15,2013-05-04 12:26:00,
2013-05-04 08:32:00,46.0,44.1,29.98,ENE,73,11.0,17.0,93,0.00,,,0.00,Wunderground v.1.15,2013-05-04 12:32:00,
2013-05-04 08:37:00,46.2,44.0,29.98,ENE,58,3.0,7.0,92,0.00,,,0.00,Wunderground v.1.15,2013-05-04 12:37:00,
2013-05-04 08:42:00,46.4,44.2,29.97,East,82,6.0,10.0,92,0.00,,,0.00,Wunderground v.1.15,2013-05-04 12:42:00,
2013-05-04 08:47:00,46.5,44.3,29.97,East,83,0.0,4.0,92,0.00,,,0.00,Wunderground v.1.15,2013-05-04 12:47:00,
2013-05-04 08:53:00,46.5,44.6,29.97,NE,51,5.0,13.0,93,0.00,,,0.00,Wunderground v.1.15,2013-05-04 12:53:00,
2013-05-04 08:58:00,46.7,44.2,29.97,East,88,2.0,12.0,91,0.00,,,0.00,Wunderground v.1.15,2013-05-04 12:58:00,
2013-05-04 09:03:00,47.0,44.5,29.97,ENE,58,11.0,12.0,91,0.00,,,0.00,Wunderground v.1.15,2013-05-04 13:03:00,
2013-05-04 09:07:00,47.0,44.2,29.97,ENE,66,3.0,6.0,90,0.00,,,0.00,Wunderground v.1.15,2013-05-04 13:07:00,
2013-05-04 09:13:00,47.1,44.3,29.98,ENE,58,6.0,8.0,90,0.00,,,0.00,Wunderground v.1.15,2013-05-04 13:13:00,
2013-05-04 09:18:00,47.3,44.8,29.98,ENE,68,7.0,8.0,91,0.00,,,0.00,Wunderground v.1.15,2013-05-04 13:18:00,
2013-05-04 09:23:00,47.4,44.9,29.98,ENE,73,6.0,8.0,91,0.00,,,0.00,Wunderground v.1.15,2013-05-04 13:23:00,
2013-05-04 09:28:00,47.4,44.6,29.97,East,80,0.0,5.0,90,0.00,,,0.00,Wunderground v.1.15,2013-05-04 13:28:00,
2013-05-04 09:33:00,47.4,44.9,29.97,NE,51,2.0,5.0,91,0.00,,,0.00,Wunderground v.1.15,2013-05-04 13:33:00,
2013-05-04 09:38:00,47.4,44.9,29.97,ENE,66,5.0,8.0,91,0.00,,,0.00,Wunderground v.1.15,2013-05-04 13:38:00,
2013-05-04 09:46:00,47.6,45.1,29.97,NNE,28,0.0,2.0,91,0.00,,,0.00,Wunderground v.1.15,2013-05-04 13:46:00,
2013-05-04 09:51:00,47.6,44.8,29.97,NE,49,1.0,15.0,90,0.00,,,0.00,Wunderground v.1.15,2013-05-04 13:51:00,
2013-05-04 09:56:00,47.7,44.9,29.97,NE,38,1.0,5.0,90,0.00,,,0.00,Wunderground v.1.15,2013-05-04 13:56:00,
2013-05-04 10:01:00,47.7,44.9,29.97,NNE,32,0.0,5.0,90,0.00,,,0.00,Wunderground v.1.15,2013-05-04 14:01:00,
2013-05-04 10:07:00,47.7,44.9,29.97,ENE,76,0.0,5.0,90,0.00,,,0.00,Wunderground v.1.15,2013-05-04 14:07:00,
2013-05-04 10:12:00,47.7,45.2,29.98,ENE,72,0.0,5.0,91,0.00,,,0.00,Wunderground v.1.15,2013-05-04 14:12:00,
2013-05-04 10:17:00,47.7,45.2,29.98,South,181,0.0,1.0,91,0.00,,,0.00,Wunderground v.1.15,2013-05-04 14:17:00,
2013-05-04 10:23:00,47.7,44.9,29.98,SW,226,3.0,6.0,90,0.00,,,0.00,Wunderground v.1.15,2013-05-04 14:23:00,
2013-05-04 10:28:00,47.7,44.9,29.98,SSE,162,0.0,5.0,90,0.00,,,0.00,Wunderground v.1.15,2013-05-04 14:28:00,
2013-05-04 10:33:00,47.6,45.4,29.98,ENE,73,3.0,7.0,92,0.00,,,0.00,Wunderground v.1.15,2013-05-04 14:33:00,
2013-05-04 10:38:00,47.4,45.2,29.98,East,92,1.0,6.0,92,0.00,,,0.00,Wunderground v.1.15,2013-05-04 14:38:00,
2013-05-04 10:46:00,47.4,45.2,29.98,ENE,62,5.0,5.0,92,0.00,,,0.00,Wunderground v.1.15,2013-05-04 14:46:00,
2013-05-04 10:51:00,47.4,45.2,29.98,East,86,3.0,9.0,92,0.00,,,0.00,Wunderground v.1.15,2013-05-04 14:51:00,
2013-05-04 10:56:00,47.4,45.2,29.97,NE,54,3.0,3.0,92,0.00,,,0.00,Wunderground v.1.15,2013-05-04 14:56:00,
2013-05-04 11:01:00,47.4,45.5,29.97,NE,52,0.0,4.0,93,0.00,,,0.00,Wunderground v.1.15,2013-05-04 15:01:00,
2013-05-04 11:07:00,47.4,45.5,29.97,West,260,0.0,2.0,93,0.00,,,0.00,Wunderground v.1.15,2013-05-04 15:07:00,
2013-05-04 11:12:00,47.6,45.7,29.97,West,268,0.0,4.0,93,0.00,,,0.00,Wunderground v.1.15,2013-05-04 15:12:00,
2013-05-04 11:17:00,47.6,45.7,29.97,North,0,0.0,6.0,93,0.00,,,0.00,Wunderground v.1.15,2013-05-04 15:17:00,
2013-05-04 11:22:00,47.7,45.8,29.97,WNW,291,4.0,6.0,93,0.00,,,0.00,Wunderground v.1.15,2013-05-04 15:22:00,
2013-05-04 11:27:00,47.9,46.0,29.96,NNW,346,1.0,2.0,93,0.00,,,0.00,Wunderground v.1.15,2013-05-04 15:27:00,
2013-05-04 11:32:00,48.0,46.4,29.96,WSW,257,0.0,2.0,94,0.00,,,0.00,Wunderground v.1.15,2013-05-04 15:32:00,
2013-05-04 11:37:00,48.0,46.4,29.96,South,175,0.0,1.0,94,0.00,,,0.00,Wunderground v.1.15,2013-05-04 15:37:00,
2013-05-04 11:43:00,48.3,46.7,29.95,WSW,257,7.0,7.0,94,0.00,,,0.00,Wunderground v.1.15,2013-05-04 15:43:00,
2013-05-04 11:48:00,48.5,47.1,29.95,East,88,5.0,5.0,95,0.00,,,0.00,Wunderground v.1.15,2013-05-04 15:48:00,
2013-05-04 11:53:00,48.5,47.1,29.95,NNW,330,0.0,5.0,95,0.00,,,0.00,Wunderground v.1.15,2013-05-04 15:53:00,
2013-05-04 11:59:00,48.6,47.2,29.94,NNW,330,0.0,1.0,95,0.00,,,0.00,Wunderground v.1.15,2013-05-04 15:59:00,
2013-05-04 12:04:00,48.8,47.4,29.94,NE,48,6.0,6.0,95,0.00,,,0.00,Wunderground v.1.15,2013-05-04 16:04:00,
2013-05-04 12:09:00,48.8,47.4,29.94,North,357,1.0,7.0,95,0.00,,,0.00,Wunderground v.1.15,2013-05-04 16:09:00,
2013-05-04 12:15:00,48.8,47.4,29.94,ENE,59,3.0,4.0,95,0.00,,,0.00,Wunderground v.1.15,2013-05-04 16:15:00,
2013-05-04 12:20:00,48.8,47.4,29.94,ENE,68,0.0,4.0,95,0.00,,,0.00,Wunderground v.1.15,2013-05-04 16:20:00,
2013-05-04 12:27:00,48.9,47.5,29.95,SSW,213,0.0,1.0,95,0.00,,,0.00,Wunderground v.1.15,2013-05-04 16:27:00,
2013-05-04 12:32:00,48.9,47.5,29.95,NE,56,2.0,15.0,95,0.00,,,0.00,Wunderground v.1.15,2013-05-04 16:32:00,
2013-05-04 12:37:00,48.9,47.2,29.95,East,89,7.0,7.0,94,0.00,,,0.00,Wunderground v.1.15,2013-05-04 16:37:00,
2013-05-04 12:42:00,49.1,47.4,29.95,ENE,76,5.0,7.0,94,0.00,,,0.00,Wunderground v.1.15,2013-05-04 16:42:00,
2013-05-04 12:48:00,49.1,47.2,29.95,East,79,3.0,5.0,93,0.00,,,0.00,Wunderground v.1.15,2013-05-04 16:48:00,
2013-05-04 12:53:00,49.1,47.2,29.95,East,83,11.0,11.0,93,0.00,,,0.00,Wunderground v.1.15,2013-05-04 16:53:00,
2013-05-04 12:58:00,49.2,47.3,29.94,ENE,78,3.0,14.0,93,0.00,,,0.00,Wunderground v.1.15,2013-05-04 16:58:00,
2013-05-04 13:03:00,49.2,47.3,29.94,ENE,61,3.0,14.0,93,0.00,,,0.00,Wunderground v.1.15,2013-05-04 17:03:00,
2013-05-04 13:08:00,49.2,47.3,29.94,ESE,116,1.0,4.0,93,0.00,,,0.00,Wunderground v.1.15,2013-05-04 17:08:00,
2013-05-04 13:14:00,49.2,47.3,29.93,ENE,75,14.0,14.0,93,0.00,,,0.00,Wunderground v.1.15,2013-05-04 17:14:00,
2013-05-04 13:20:00,49.4,47.5,29.93,NE,56,5.0,14.0,93,0.00,,,0.00,Wunderground v.1.15,2013-05-04 17:20:00,
2013-05-04 13:25:00,49.2,47.3,29.93,East,99,8.0,8.0,93,0.00,,,0.00,Wunderground v.1.15,2013-05-04 17:25:00,
2013-05-04 13:30:00,49.4,47.5,29.93,East,96,1.0,8.0,93,0.00,,,0.00,Wunderground v.1.15,2013-05-04 17:30:00,
2013-05-04 13:36:00,49.4,47.5,29.93,SSE,161,0.0,6.0,93,0.00,,,0.00,Wunderground v.1.15,2013-05-04 17:36:00,
2013-05-04 13:39:00,49.4,47.5,29.93,SSE,161,0.0,6.0,93,0.00,,,0.00,Wunderground v.1.15,2013-05-04 17:39:00,
2013-05-04 13:44:00,49.4,47.5,29.93,South,174,0.0,1.0,93,0.00,,,0.00,Wunderground v.1.15,2013-05-04 17:44:00,
2013-05-04 13:49:00,49.4,47.5,29.93,ESE,102,0.0,6.0,93,0.00,,,0.00,Wunderground v.1.15,2013-05-04 17:49:00,
2013-05-04 13:56:00,49.5,47.6,29.92,ENE,69,0.0,1.0,93,0.00,,,0.00,Wunderground v.1.15,2013-05-04 17:56:00,
2013-05-04 14:01:00,49.6,47.9,29.92,ENE,69,0.0,1.0,94,0.00,,,0.00,Wunderground v.1.15,2013-05-04 18:01:00,
2013-05-04 14:06:00,49.9,48.5,29.92,South,189,6.0,6.0,95,0.00,,,0.00,Wunderground v.1.15,2013-05-04 18:06:00,
2013-05-04 14:11:00,50.1,48.4,29.91,South,184,0.0,6.0,94,0.00,,,0.00,Wunderground v.1.15,2013-05-04 18:11:00,
2013-05-04 14:16:00,50.4,49.0,29.91,SW,216,0.0,1.0,95,0.00,,,0.00,Wunderground v.1.15,2013-05-04 18:16:00,
2013-05-04 14:22:00,50.5,49.1,29.91,East,85,0.0,6.0,95,0.00,,,0.00,Wunderground v.1.15,2013-05-04 18:22:00,
2013-05-04 14:27:00,50.5,48.8,29.90,East,93,11.0,11.0,94,0.00,,,0.00,Wunderground v.1.15,2013-05-04 18:27:00,
2013-05-04 14:32:00,50.2,48.3,29.90,East,97,8.0,20.0,93,0.00,,,0.00,Wunderground v.1.15,2013-05-04 18:32:00,
2013-05-04 14:37:00,50.2,48.0,29.90,ENE,68,5.0,8.0,92,0.00,,,0.00,Wunderground v.1.15,2013-05-04 18:37:00,
2013-05-04 14:42:00,50.2,48.0,29.91,East,80,5.0,18.0,92,0.00,,,0.00,Wunderground v.1.15,2013-05-04 18:42:00,
2013-05-04 14:47:00,50.1,47.9,29.91,WNW,301,0.0,6.0,92,0.00,,,0.00,Wunderground v.1.15,2013-05-04 18:47:00,
2013-05-04 14:52:00,50.1,47.9,29.91,East,79,5.0,12.0,92,0.00,,,0.00,Wunderground v.1.15,2013-05-04 18:52:00,
2013-05-04 14:57:00,50.2,48.3,29.90,SE,126,5.0,5.0,93,0.00,,,0.00,Wunderground v.1.15,2013-05-04 18:57:00,
2013-05-04 15:03:00,50.1,48.4,29.90,East,86,1.0,6.0,94,0.00,,,0.00,Wunderground v.1.15,2013-05-04 19:03:00,
2013-05-04 15:08:00,49.9,48.0,29.90,East,85,0.0,6.0,93,0.00,,,0.00,Wunderground v.1.15,2013-05-04 19:08:00,
2013-05-04 15:13:00,49.9,48.0,29.90,West,280,0.0,6.0,93,0.00,,,0.00,Wunderground v.1.15,2013-05-04 19:13:00,
2013-05-04 15:18:00,49.9,48.2,29.90,SE,133,2.0,4.0,94,0.00,,,0.00,Wunderground v.1.15,2013-05-04 19:18:00,
2013-05-04 15:23:00,49.9,48.0,29.90,South,172,0.0,4.0,93,0.00,,,0.00,Wunderground v.1.15,2013-05-04 19:23:00,
2013-05-04 15:28:00,49.8,47.9,29.90,ENE,59,2.0,6.0,93,0.00,,,0.00,Wunderground v.1.15,2013-05-04 19:28:00,
2013-05-04 15:34:00,49.8,48.1,29.90,East,80,1.0,6.0,94,0.00,,,0.00,Wunderground v.1.15,2013-05-04 19:34:00,
2013-05-04 15:39:00,49.8,48.4,29.90,North,0,0.0,2.0,95,0.00,,,0.00,Wunderground v.1.15,2013-05-04 19:39:00,
2013-05-04 15:44:00,49.9,48.8,29.90,SW,234,1.0,2.0,96,0.00,,,0.00,Wunderground v.1.15,2013-05-04 19:44:00,
2013-05-04 15:49:00,49.8,48.7,29.90,ENE,66,1.0,3.0,96,0.00,,,0.00,Wunderground v.1.15,2013-05-04 19:49:00,
2013-05-04 15:56:00,49.6,48.2,29.91,NNW,336,1.0,1.0,95,0.00,,,0.00,Wunderground v.1.15,2013-05-04 19:56:00,
2013-05-04 16:01:00,49.5,48.1,29.91,NE,47,0.0,2.0,95,0.00,,,0.00,Wunderground v.1.15,2013-05-04 20:01:00,
2013-05-04 16:06:00,49.5,48.1,29.91,ENE,68,0.0,1.0,95,0.00,,,0.00,Wunderground v.1.15,2013-05-04 20:06:00,
2013-05-04 16:12:00,49.4,48.0,29.89,East,97,8.0,8.0,95,0.00,,,0.00,Wunderground v.1.15,2013-05-04 20:12:00,
2013-05-04 16:17:00,49.2,47.8,29.89,ESE,106,0.0,10.0,95,0.00,,,0.00,Wunderground v.1.15,2013-05-04 20:17:00,
2013-05-04 16:22:00,49.4,48.0,29.89,East,92,6.0,10.0,95,0.00,,,0.00,Wunderground v.1.15,2013-05-04 20:22:00,
2013-05-04 16:27:00,49.2,47.5,29.90,SE,127,1.0,3.0,94,0.00,,,0.00,Wunderground v.1.15,2013-05-04 20:27:00,
2013-05-04 16:32:00,49.4,48.0,29.90,ENE,76,5.0,5.0,95,0.00,,,0.00,Wunderground v.1.15,2013-05-04 20:32:00,
2013-05-04 16:37:00,49.4,48.0,29.90,ENE,59,0.0,1.0,95,0.00,,,0.00,Wunderground v.1.15,2013-05-04 20:37:00,
2013-05-04 16:42:00,49.5,48.1,29.90,NW,326,0.0,3.0,95,0.00,,,0.00,Wunderground v.1.15,2013-05-04 20:42:00,
2013-05-04 16:47:00,49.4,48.0,29.90,SSW,205,1.0,2.0,95,0.00,,,0.00,Wunderground v.1.15,2013-05-04 20:47:00,
2013-05-04 16:53:00,49.4,48.0,29.90,East,88,0.0,8.0,95,0.00,,,0.00,Wunderground v.1.15,2013-05-04 20:53:00,
2013-05-04 16:58:00,49.4,47.7,29.90,East,97,5.0,5.0,94,0.00,,,0.00,Wunderground v.1.15,2013-05-04 20:58:00,
2013-05-04 17:03:00,49.4,47.7,29.90,NE,56,2.0,6.0,94,0.00,,,0.00,Wunderground v.1.15,2013-05-04 21:03:00,
2013-05-04 17:08:00,49.2,47.8,29.90,NE,55,11.0,11.0,95,0.00,,,0.00,Wunderground v.1.15,2013-05-04 21:08:00,
2013-05-04 17:13:00,49.1,47.7,29.88,East,96,8.0,11.0,95,0.00,,,0.00,Wunderground v.1.15,2013-05-04 21:13:00,
2013-05-04 17:19:00,49.2,47.5,29.88,ENE,71,7.0,11.0,94,0.00,,,0.00,Wunderground v.1.15,2013-05-04 21:19:00,
2013-05-04 17:24:00,49.1,47.7,29.88,ENE,72,1.0,11.0,95,0.00,,,0.00,Wunderground v.1.15,2013-05-04 21:24:00,
2013-05-04 17:29:00,49.1,47.7,29.88,ENE,78,0.0,4.0,95,0.00,,,0.00,Wunderground v.1.15,2013-05-04 21:29:00,
2013-05-04 17:34:00,49.1,47.7,29.88,ENE,76,3.0,4.0,95,0.00,,,0.00,Wunderground v.1.15,2013-05-04 21:34:00,
2013-05-04 17:39:00,49.2,48.1,29.88,NNW,340,0.0,2.0,96,0.00,,,0.00,Wunderground v.1.15,2013-05-04 21:39:00,
2013-05-04 17:46:00,49.2,48.1,29.88,SE,127,2.0,2.0,96,0.00,,,0.00,Wunderground v.1.15,2013-05-04 21:46:00,
2013-05-04 17:51:00,49.4,48.3,29.88,ENE,75,6.0,7.0,96,0.00,,,0.00,Wunderground v.1.15,2013-05-04 21:51:00,
2013-05-04 17:57:00,49.4,48.3,29.90,SE,127,1.0,5.0,96,0.00,,,0.00,Wunderground v.1.15,2013-05-04 21:57:00,
2013-05-04 18:02:00,49.5,48.4,29.90,ENE,61,3.0,5.0,96,0.00,,,0.00,Wunderground v.1.15,2013-05-04 22:02:00,
2013-05-04 18:07:00,49.6,48.2,29.90,East,100,3.0,8.0,95,0.00,,,0.00,Wunderground v.1.15,2013-05-04 22:07:00,
2013-05-04 18:13:00,49.6,48.2,29.87,NNE,25,0.0,8.0,95,0.00,,,0.00,Wunderground v.1.15,2013-05-04 22:13:00,
2013-05-04 18:18:00,49.5,48.4,29.87,ENE,73,0.0,3.0,96,0.00,,,0.00,Wunderground v.1.15,2013-05-04 22:18:00,
2013-05-04 18:23:00,49.5,48.4,29.87,ENE,76,0.0,5.0,96,0.00,,,0.00,Wunderground v.1.15,2013-05-04 22:23:00,
2013-05-04 18:28:00,49.5,48.4,29.88,WSW,241,3.0,6.0,96,0.00,,,0.00,Wunderground v.1.15,2013-05-04 22:28:00,
2013-05-04 18:33:00,49.5,48.4,29.88,SSE,162,3.0,9.0,96,0.00,,,0.00,Wunderground v.1.15,2013-05-04 22:33:00,
2013-05-04 18:38:00,49.6,48.5,29.88,SW,233,0.0,6.0,96,0.00,,,0.00,Wunderground v.1.15,2013-05-04 22:38:00,
2013-05-04 18:44:00,49.6,48.5,29.90,East,82,6.0,6.0,96,0.00,,,0.00,Wunderground v.1.15,2013-05-04 22:44:00,
2013-05-04 18:49:00,49.8,48.7,29.90,ENE,72,1.0,4.0,96,0.00,,,0.00,Wunderground v.1.15,2013-05-04 22:49:00,
2013-05-04 18:55:00,49.8,48.7,29.90,East,82,2.0,2.0,96,0.00,,,0.00,Wunderground v.1.15,2013-05-04 22:55:00,
2013-05-04 19:00:00,49.8,48.7,29.90,South,175,2.0,2.0,96,0.00,,,0.00,Wunderground v.1.15,2013-05-04 23:00:00,
2013-05-04 19:06:00,49.8,49.0,29.90,ESE,119,2.0,2.0,97,0.00,,,0.00,Wunderground v.1.15,2013-05-04 23:06:00,
2013-05-04 19:11:00,49.8,49.0,29.89,ENE,64,2.0,5.0,97,0.00,,,0.00,Wunderground v.1.15,2013-05-04 23:11:00,
2013-05-04 19:16:00,49.8,48.7,29.89,ENE,72,2.0,5.0,96,0.00,,,0.00,Wunderground v.1.15,2013-05-04 23:16:00,
2013-05-04 19:21:00,49.8,48.7,29.89,NE,56,3.0,8.0,96,0.00,,,0.00,Wunderground v.1.15,2013-05-04 23:21:00,
2013-05-04 19:26:00,49.8,48.7,29.88,NNW,329,3.0,4.0,96,0.00,,,0.00,Wunderground v.1.15,2013-05-04 23:26:00,
2013-05-04 19:32:00,49.8,48.7,29.88,WSW,247,2.0,6.0,96,0.00,,,0.00,Wunderground v.1.15,2013-05-04 23:32:00,
2013-05-04 19:37:00,49.8,49.0,29.88,WNW,282,3.0,3.0,97,0.00,,,0.00,Wunderground v.1.15,2013-05-04 23:37:00,
2013-05-04 19:42:00,49.8,49.0,29.91,WNW,282,0.0,3.0,97,0.00,,,0.00,Wunderground v.1.15,2013-05-04 23:42:00,
2013-05-04 19:47:00,49.6,48.8,29.91,ENE,65,0.0,1.0,97,0.00,,,0.00,Wunderground v.1.15,2013-05-04 23:47:00,
2013-05-04 19:52:00,49.6,48.5,29.91,East,82,3.0,8.0,96,0.00,,,0.00,Wunderground v.1.15,2013-05-04 23:52:00,
2013-05-04 19:57:00,49.6,48.5,29.89,ESE,113,0.0,2.0,96,0.00,,,0.00,Wunderground v.1.15,2013-05-04 23:57:00,
2013-05-04 20:02:00,49.6,48.5,29.89,WSW,257,0.0,4.0,96,0.00,,,0.00,Wunderground v.1.15,2013-05-05 00:02:00,
2013-05-04 20:07:00,49.6,48.5,29.89,West,260,3.0,3.0,96,0.00,,,0.00,Wunderground v.1.15,2013-05-05 00:07:00,
2013-05-04 20:12:00,49.5,48.4,29.92,NE,55,2.0,4.0,96,0.00,,,0.00,Wunderground v.1.15,2013-05-05 00:12:00,
2013-05-04 20:17:00,49.5,48.4,29.92,ENE,65,3.0,8.0,96,0.00,,,0.00,Wunderground v.1.15,2013-05-05 00:17:00,
2013-05-04 20:22:00,49.4,48.6,29.92,East,88,5.0,12.0,97,0.00,,,0.00,Wunderground v.1.15,2013-05-05 00:22:00,
2013-05-04 20:28:00,49.2,48.4,29.91,ENE,58,2.0,8.0,97,0.00,,,0.00,Wunderground v.1.15,2013-05-05 00:28:00,
2013-05-04 20:33:00,49.2,48.4,29.91,ENE,78,3.0,8.0,97,0.00,,,0.00,Wunderground v.1.15,2013-05-05 00:33:00,
2013-05-04 20:38:00,49.2,48.4,29.91,East,86,2.0,4.0,97,0.00,,,0.00,Wunderground v.1.15,2013-05-05 00:38:00,
2013-05-04 20:43:00,49.2,48.4,29.92,East,90,2.0,4.0,97,0.00,,,0.00,Wunderground v.1.15,2013-05-05 00:43:00,
2013-05-04 20:48:00,49.2,48.4,29.92,ENE,61,12.0,12.0,97,0.00,,,0.00,Wunderground v.1.15,2013-05-05 00:48:00,
2013-05-04 20:53:00,49.1,48.0,29.92,ENE,59,7.0,12.0,96,0.00,,,0.00,Wunderground v.1.15,2013-05-05 00:53:00,
2013-05-04 20:58:00,49.1,48.0,29.90,ENE,78,1.0,9.0,96,0.00,,,0.00,Wunderground v.1.15,2013-05-05 00:58:00,
2013-05-04 21:03:00,49.1,48.0,29.90,ENE,59,3.0,18.0,96,0.00,,,0.00,Wunderground v.1.15,2013-05-05 01:03:00,
2013-05-04 21:09:00,48.9,47.8,29.90,NE,49,6.0,6.0,96,0.00,,,0.00,Wunderground v.1.15,2013-05-05 01:09:00,
2013-05-04 21:14:00,48.9,47.8,29.90,NNE,23,2.0,10.0,96,0.00,,,0.00,Wunderground v.1.15,2013-05-05 01:14:00,
2013-05-04 21:19:00,48.9,47.8,29.90,ENE,61,8.0,16.0,96,0.00,,,0.00,Wunderground v.1.15,2013-05-05 01:19:00,
2013-05-04 21:26:00,48.9,47.8,29.90,ENE,68,6.0,8.0,96,0.00,,,0.00,Wunderground v.1.15,2013-05-05 01:26:00,
2013-05-04 21:31:00,48.9,47.8,29.90,NE,49,6.0,8.0,96,0.00,,,0.00,Wunderground v.1.15,2013-05-05 01:31:00,
2013-05-04 21:37:00,48.9,47.8,29.90,ENE,69,2.0,7.0,96,0.00,,,0.00,Wunderground v.1.15,2013-05-05 01:37:00,
2013-05-04 21:42:00,48.9,47.8,29.90,East,82,9.0,19.0,96,0.00,,,0.00,Wunderground v.1.15,2013-05-05 01:42:00,
2013-05-04 21:47:00,48.9,47.8,29.90,East,85,13.0,13.0,96,0.00,,,0.00,Wunderground v.1.15,2013-05-05 01:47:00,
2013-05-04 21:52:00,48.9,47.8,29.90,East,96,12.0,16.0,96,0.00,,,0.00,Wunderground v.1.15,2013-05-05 01:52:00,
2013-05-04 21:57:00,48.9,47.8,29.89,ENE,69,10.0,10.0,96,0.00,,,0.00,Wunderground v.1.15,2013-05-05 01:57:00,
2013-05-04 22:02:00,49.1,48.0,29.89,East,80,3.0,13.0,96,0.00,,,0.00,Wunderground v.1.15,2013-05-05 02:02:00,
2013-05-04 22:08:00,49.1,48.0,29.89,East,93,14.0,16.0,96,0.00,,,0.00,Wunderground v.1.15,2013-05-05 02:08:00,
2013-05-04 22:13:00,49.1,47.7,29.90,ENE,58,6.0,16.0,95,0.00,,,0.00,Wunderground v.1.15,2013-05-05 02:13:00,
2013-05-04 22:18:00,49.1,48.0,29.90,NE,52,6.0,10.0,96,0.00,,,0.00,Wunderground v.1.15,2013-05-05 02:18:00,
2013-05-04 22:23:00,49.1,48.0,29.90,ENE,68,6.0,16.0,96,0.00,,,0.00,Wunderground v.1.15,2013-05-05 02:23:00,
2013-05-04 22:28:00,49.1,48.0,29.90,East,89,1.0,14.0,96,0.00,,,0.00,Wunderground v.1.15,2013-05-05 02:28:00,
2013-05-04 22:33:00,49.1,48.0,29.90,ENE,66,2.0,14.0,96,0.00,,,0.00,Wunderground v.1.15,2013-05-05 02:33:00,
2013-05-04 22:38:00,48.9,47.8,29.90,SE,140,5.0,19.0,96,0.00,,,0.00,Wunderground v.1.15,2013-05-05 02:38:00,
2013-05-04 22:44:00,49.1,47.7,29.91,East,92,10.0,19.0,95,0.00,,,0.00,Wunderground v.1.15,2013-05-05 02:44:00,
2013-05-04 22:49:00,49.1,47.7,29.91,East,96,18.0,18.0,95,0.00,,,0.00,Wunderground v.1.15,2013-05-05 02:49:00,
2013-05-04 22:54:00,49.1,47.7,29.91,ENE,72,1.0,18.0,95,0.00,,,0.00,Wunderground v.1.15,2013-05-05 02:54:00,
2013-05-04 22:59:00,49.1,47.7,29.89,NE,49,3.0,21.0,95,0.00,,,0.00,Wunderground v.1.15,2013-05-05 02:59:00,
2013-05-04 23:05:00,49.1,47.7,29.89,East,97,5.0,13.0,95,0.00,,,0.00,Wunderground v.1.15,2013-05-05 03:05:00,
2013-05-04 23:11:00,49.2,47.8,29.88,ENE,72,7.0,20.0,95,0.00,,,0.00,Wunderground v.1.15,2013-05-05 03:11:00,
2013-05-04 23:16:00,49.2,47.8,29.88,ENE,71,10.0,17.0,95,0.00,,,0.00,Wunderground v.1.15,2013-05-05 03:16:00,
2013-05-04 23:21:00,49.4,48.0,29.88,ENE,71,12.0,17.0,95,0.00,,,0.00,Wunderground v.1.15,2013-05-05 03:21:00,
2013-05-04 23:27:00,49.2,47.8,29.88,NNE,25,7.0,15.0,95,0.00,,,0.00,Wunderground v.1.15,2013-05-05 03:27:00,
2013-05-04 23:33:00,49.2,47.8,29.88,ENE,73,11.0,15.0,95,0.00,,,0.00,Wunderground v.1.15,2013-05-05 03:33:00,
2013-05-04 23:38:00,49.2,47.8,29.88,ENE,65,11.0,18.0,95,0.00,,,0.00,Wunderground v.1.15,2013-05-05 03:38:00,
2013-05-04 23:43:00,49.2,47.8,29.88,ENE,66,4.0,19.0,95,0.00,,,0.00,Wunderground v.1.15,2013-05-05 03:43:00,
2013-05-04 23:48:00,49.1,47.7,29.88,ESE,120,5.0,13.0,95,0.00,,,0.00,Wunderground v.1.15,2013-05-05 03:48:00,
2013-05-04 23:55:00,49.1,47.7,29.87,ENE,73,8.0,30.0,95,0.00,,,0.00,Wunderground v.1.15,2013-05-05 03:55:00,